Aérodrome :
LOGIN :

S'inscrire | Disclaimer

   EN    FR    IT 

 










Légende :    VFR   VFR Marginal   IFR   IFR Intensif   IFR Très Intensif
Visi : 
Plafond : 
>= 8 km
>= 3000ft
5 à 8 km
1000 à 3000 ft
1500m à 5 km
500 à 1000 ft
800 à 1500m
200 à 500 ft
< 800m
< 200 ft
Symboles :   Orages  Brouillard  Fortes neiges  Fortes précipitations  Vent > 20 kt
SIGMETs :   Divers  Orages  Givrage  Turbulence  Onde Orograph.  Cendres Volcan.






- Altitude de l'aérodrome : 62 ft
- Code IATA : ARH


ULAA - Talagi

DERNIER METAR :
  • 310130Z 01002MPS 320V040 9999 BKN025 04/01 Q1026 R08/CLRD68 NOSIG RMK QFE769/1025

METARs EXPIRÉS :
  • 310100Z 01002MPS 9999 BKN020 04/00 Q1026 R08/CLRD68 NOSIG RMK QFE769/1025
  • 310030Z 03003MPS 350V060 9999 BKN020 05/00 Q1026 R08/CLRD68 NOSIG RMK QFE769/1025
  • 310000Z 02004MPS 330V050 9999 BKN022 05/01 Q1026 R08/CLRD68 NOSIG RMK QFE769/1025
  • 302330Z 01004MPS 340V040 9999 BKN020 05/01 Q1026 R08/CLRD68 NOSIG RMK QFE769/1025
  • 302300Z 36004MPS 330V040 9999 BKN021 05/02 Q1026 R08/CLRD68 NOSIG RMK QFE769/1025
  • 302230Z 01004MPS 330V050 9999 OVC036 05/01 Q1026 R08/CLRD68 NOSIG RMK QFE769/1025

TAF TAF ULAA
Valide du 31 à 00h jusqu'au 01 à 00h UTC


302300Z 3100/3124 02004MPS 9999 BKN017
TEMPO 3100/3106 35004G10MPS 6000 -SHRA FEW007 BKN015CB
TEMPO 3106/3124 36005G12MPS -SHRA BKN016CB



MET'MAP, la Météo Aéronautique d'un coup d'oeil ! - Copyright ORBIFLY Décembre 2007 - Disclaimer

ORBIFLY MET'MAP TEAM :

Programmation & Développement : Alexandra Zaïnal
Sur une idée originale de : Baudouin d'Aumeries
Assistance à la programmation : Marc-Olivier Méhu
Soutien technique & logistique : Manuel Goepfert

Contact : metmap@orbifly.com




SOURCES & CREDITS :

   NOAA